createdAt,value
2017-03-28T00:00:07.793Z,0
2017-03-28T00:01:07.850Z,0
2017-03-28T00:02:07.903Z,0
2017-03-28T00:03:07.952Z,0
2017-03-28T00:04:07.706Z,0
2017-03-28T00:05:08.063Z,0
2017-03-28T00:06:08.115Z,0
2017-03-28T00:07:08.165Z,0
2017-03-28T00:08:08.221Z,0
2017-03-28T00:09:08.273Z,0
2017-03-28T00:10:08.328Z,0
2017-03-28T00:11:08.380Z,0
2017-03-28T00:12:08.131Z,0
2017-03-28T00:13:08.491Z,0
2017-03-28T00:14:08.545Z,0
2017-03-28T00:15:08.596Z,0
2017-03-28T00:16:08.661Z,0
2017-03-28T00:17:08.394Z,0
2017-03-28T00:18:08.758Z,0
2017-03-28T00:19:08.809Z,0
2017-03-28T00:20:08.559Z,0
2017-03-28T00:21:08.909Z,0
2017-03-28T00:22:08.967Z,0
2017-03-28T00:23:09.027Z,0
2017-03-28T00:24:09.071Z,0
2017-03-28T00:25:09.125Z,0
2017-03-28T00:26:09.181Z,0
2017-03-28T00:27:08.930Z,0
2017-03-28T00:28:09.294Z,0
2017-03-28T00:29:09.342Z,0
2017-03-28T00:30:09.094Z,0
2017-03-28T00:31:09.445Z,0
2017-03-28T00:32:09.499Z,0
2017-03-28T00:33:09.561Z,0
2017-03-28T00:34:09.613Z,0
2017-03-28T00:35:09.660Z,0
2017-03-28T00:36:09.714Z,0
2017-03-28T00:37:09.769Z,0
2017-03-28T00:38:09.816Z,0
2017-03-28T00:39:09.875Z,0
2017-03-28T00:40:09.929Z,0
2017-03-28T00:41:09.978Z,0
2017-03-28T00:42:10.038Z,0
2017-03-28T00:43:10.087Z,0
2017-03-28T00:44:10.144Z,0
2017-03-28T00:45:10.191Z,0
2017-03-28T00:46:09.943Z,0
2017-03-28T00:47:10.302Z,0
2017-03-28T00:48:10.359Z,0
2017-03-28T00:49:10.402Z,0
2017-03-28T00:50:10.462Z,0
2017-03-28T00:51:10.513Z,0
2017-03-28T00:52:10.570Z,0
2017-03-28T00:53:10.627Z,0
2017-03-28T00:54:10.675Z,0
2017-03-28T00:55:10.928Z,0
2017-03-28T00:56:10.778Z,0
2017-03-28T00:57:10.831Z,0
2017-03-28T00:58:10.889Z,0
2017-03-28T00:59:10.938Z,0
2017-03-28T01:00:10.995Z,0
2017-03-28T01:01:11.046Z,0
2017-03-28T01:02:11.103Z,0
2017-03-28T01:03:11.155Z,0
2017-03-28T01:04:11.209Z,0
2017-03-28T01:05:11.260Z,0
2017-03-28T01:06:11.311Z,0
2017-03-28T01:07:11.376Z,0
2017-03-28T01:08:11.415Z,0
2017-03-28T01:09:11.472Z,0
2017-03-28T01:10:11.221Z,0
2017-03-28T01:11:11.577Z,0
2017-03-28T01:12:11.035Z,0
2017-03-28T01:13:11.689Z,0
2017-03-28T01:14:11.736Z,0
2017-03-28T01:15:11.793Z,0
2017-03-28T01:16:11.541Z,0
2017-03-28T01:17:11.897Z,0
2017-03-28T01:18:11.951Z,0
2017-03-28T01:19:12.006Z,0
2017-03-28T01:20:12.057Z,0
2017-03-28T01:21:12.335Z,0
2017-03-28T01:22:11.558Z,0
2017-03-28T01:23:12.225Z,0
2017-03-28T01:24:11.967Z,0
2017-03-28T01:25:12.542Z,0
2017-03-28T01:26:12.070Z,0
2017-03-28T01:27:12.432Z,0
2017-03-28T01:28:12.484Z,0
2017-03-28T01:29:12.532Z,0
2017-03-28T01:30:12.589Z,0
2017-03-28T01:31:12.846Z,0
2017-03-28T01:32:27.022Z,0
2017-03-28T01:33:12.762Z,0
2017-03-28T01:34:12.499Z,0
2017-03-28T01:35:12.858Z,0
2017-03-28T01:36:12.908Z,0
2017-03-28T01:37:12.964Z,0
2017-03-28T01:38:13.016Z,0
2017-03-28T01:39:13.071Z,0
2017-03-28T01:40:13.123Z,0
2017-03-28T01:41:13.172Z,0
2017-03-28T01:42:13.225Z,0
2017-03-28T01:43:13.284Z,0
2017-03-28T01:44:13.335Z,0
2017-03-28T01:45:13.390Z,0
2017-03-28T01:46:13.436Z,0
2017-03-28T01:47:13.495Z,0
2017-03-28T01:48:13.547Z,0
2017-03-28T01:49:13.606Z,0
2017-03-28T01:50:13.655Z,0
2017-03-28T01:51:13.706Z,0
2017-03-28T01:52:13.756Z,0
2017-03-28T01:53:13.815Z,0
2017-03-28T01:54:13.870Z,0
2017-03-28T01:55:13.920Z,0
2017-03-28T01:56:13.969Z,0
2017-03-28T01:57:14.023Z,0
2017-03-28T01:58:13.778Z,0
2017-03-28T01:59:14.143Z,0
2017-03-28T02:00:14.185Z,0
2017-03-28T02:01:14.233Z,0
2017-03-28T02:02:14.287Z,0
2017-03-28T02:03:14.345Z,0
2017-03-28T02:04:14.097Z,0
2017-03-28T02:05:14.449Z,0
2017-03-28T02:06:14.504Z,0
2017-03-28T02:07:27.945Z,0
2017-03-28T02:08:14.612Z,0
2017-03-28T02:09:14.666Z,0
2017-03-28T02:10:14.410Z,0
2017-03-28T02:11:14.767Z,0
2017-03-28T02:12:14.819Z,0
2017-03-28T02:13:14.874Z,0
2017-03-28T02:14:14.931Z,0
2017-03-28T02:15:14.981Z,0
2017-03-28T02:16:15.032Z,0
2017-03-28T02:17:15.089Z,0
2017-03-28T02:18:15.144Z,0
2017-03-28T02:19:15.200Z,0
2017-03-28T02:20:15.244Z,0
2017-03-28T02:21:15.295Z,0
2017-03-28T02:22:15.354Z,0
2017-03-28T02:23:15.107Z,0
2017-03-28T02:24:15.462Z,0
2017-03-28T02:25:15.514Z,0
2017-03-28T02:26:15.564Z,0
2017-03-28T02:27:15.621Z,0
2017-03-28T02:28:15.675Z,0
2017-03-28T02:29:15.723Z,0
2017-03-28T02:30:15.775Z,0
2017-03-28T02:31:15.527Z,0
2017-03-28T02:32:15.911Z,0
2017-03-28T02:33:16.138Z,0
2017-03-28T02:34:16.193Z,0
2017-03-28T02:35:16.042Z,0
2017-03-28T02:36:16.094Z,0
2017-03-28T02:37:16.147Z,0
2017-03-28T02:38:16.214Z,0
2017-03-28T02:39:16.452Z,0
2017-03-28T02:40:16.309Z,0
2017-03-28T02:41:16.061Z,0
2017-03-28T02:42:16.412Z,0
2017-03-28T02:43:16.162Z,0
2017-03-28T02:44:16.726Z,0
2017-03-28T02:45:16.576Z,0
2017-03-28T02:46:16.634Z,0
2017-03-28T02:47:16.678Z,0
2017-03-28T02:48:16.429Z,0
2017-03-28T02:49:16.786Z,0
2017-03-28T02:50:16.838Z,0
2017-03-28T02:51:16.887Z,0
2017-03-28T02:52:16.940Z,0
2017-03-28T02:53:16.994Z,0
2017-03-28T02:54:17.056Z,0
2017-03-28T02:55:17.097Z,0
2017-03-28T02:56:17.155Z,0
2017-03-28T02:57:17.207Z,0
2017-03-28T02:58:17.261Z,0
2017-03-28T02:59:17.309Z,0
2017-03-28T03:00:17.384Z,0
2017-03-28T03:01:17.424Z,0
2017-03-28T03:02:17.164Z,0
2017-03-28T03:03:17.524Z,0
2017-03-28T03:04:17.580Z,0
2017-03-28T03:05:17.629Z,0
2017-03-28T03:06:17.886Z,0
2017-03-28T03:07:17.739Z,0
2017-03-28T03:08:17.789Z,0
2017-03-28T03:09:17.840Z,0
2017-03-28T03:10:17.897Z,0
2017-03-28T03:11:17.947Z,0
2017-03-28T03:12:18.002Z,0
2017-03-28T03:13:18.062Z,0
2017-03-28T03:14:31.735Z,0
2017-03-28T03:15:31.800Z,0
2017-03-28T03:16:18.212Z,0
2017-03-28T03:17:18.260Z,0
2017-03-28T03:18:18.317Z,0
2017-03-28T03:19:18.365Z,0
2017-03-28T03:20:18.636Z,0
2017-03-28T03:21:18.474Z,0
2017-03-28T03:22:18.524Z,0
2017-03-28T03:23:18.583Z,0
2017-03-28T03:24:18.634Z,0
2017-03-28T03:25:18.685Z,0
2017-03-28T03:26:18.738Z,0
2017-03-28T03:27:18.787Z,0
2017-03-28T03:28:18.848Z,0
2017-03-28T03:29:18.892Z,0
2017-03-28T03:30:18.948Z,0
2017-03-28T03:31:18.702Z,0
2017-03-28T03:32:18.754Z,0
2017-03-28T03:33:19.106Z,0
2017-03-28T03:34:18.860Z,0
2017-03-28T03:35:19.210Z,0
2017-03-28T03:36:19.265Z,0
2017-03-28T03:37:19.317Z,0
2017-03-28T03:38:19.372Z,0
2017-03-28T03:39:19.427Z,0
2017-03-28T03:40:19.475Z,0
2017-03-28T03:41:19.528Z,0
2017-03-28T03:42:19.584Z,0
2017-03-28T03:43:19.638Z,0
2017-03-28T03:44:19.689Z,0
2017-03-28T03:45:19.739Z,0
2017-03-28T03:46:19.792Z,0
2017-03-28T03:47:19.843Z,0
2017-03-28T03:48:19.895Z,0
2017-03-28T03:49:19.951Z,0
2017-03-28T03:50:20.004Z,0
2017-03-28T03:51:33.431Z,0
2017-03-28T03:52:20.007Z,0
2017-03-28T03:53:19.863Z,0
2017-03-28T03:54:19.913Z,0
2017-03-28T03:55:20.265Z,0
2017-03-28T03:56:20.315Z,0
2017-03-28T03:57:20.373Z,0
2017-03-28T03:58:20.420Z,0
2017-03-28T03:59:20.478Z,0
2017-03-28T04:00:20.521Z,0
2017-03-28T04:01:20.578Z,0
2017-03-28T04:02:20.637Z,0
2017-03-28T04:03:20.690Z,0
2017-03-28T04:04:20.743Z,0
2017-03-28T04:05:20.787Z,0
2017-03-28T04:06:20.842Z,0
2017-03-28T04:07:20.899Z,0
2017-03-28T04:08:20.949Z,0
2017-03-28T04:09:21.001Z,0
2017-03-28T04:10:21.047Z,0
2017-03-28T04:11:21.107Z,0
2017-03-28T04:12:21.163Z,0
2017-03-28T04:13:21.216Z,0
2017-03-28T04:14:21.264Z,0
2017-03-28T04:15:21.317Z,0
2017-03-28T04:16:21.368Z,0
2017-03-28T04:17:21.416Z,0
2017-03-28T04:18:21.476Z,0
2017-03-28T04:19:21.530Z,0
2017-03-28T04:20:21.782Z,0
2017-03-28T04:21:21.630Z,0
2017-03-28T04:22:35.059Z,0
2017-03-28T04:23:21.739Z,0
2017-03-28T04:24:21.796Z,0
2017-03-28T04:25:21.838Z,0
2017-03-28T04:26:21.890Z,0
2017-03-28T04:27:22.146Z,0
2017-03-28T04:28:22.010Z,0
2017-03-28T04:29:22.052Z,0
2017-03-28T04:30:22.106Z,0
2017-03-28T04:31:22.154Z,0
2017-03-28T04:32:22.209Z,0
2017-03-28T04:33:22.267Z,0
2017-03-28T04:34:22.353Z,0
2017-03-28T04:35:22.367Z,0
2017-03-28T04:36:22.425Z,0
2017-03-28T04:37:22.467Z,4
2017-03-28T04:38:22.528Z,4
2017-03-28T04:39:22.589Z,4
2017-03-28T04:40:22.631Z,4
2017-03-28T04:41:22.380Z,4
2017-03-28T04:42:22.731Z,4
2017-03-28T04:43:22.790Z,4
2017-03-28T04:44:22.873Z,8
2017-03-28T04:45:22.894Z,8
2017-03-28T04:46:22.942Z,12
2017-03-28T04:47:22.998Z,12
2017-03-28T04:48:23.049Z,16
2017-03-28T04:49:23.102Z,20
2017-03-28T04:50:23.161Z,20
2017-03-28T04:51:23.248Z,28
2017-03-28T04:52:23.262Z,28
2017-03-28T04:53:23.312Z,32
2017-03-28T04:54:23.367Z,40
2017-03-28T04:55:23.418Z,48
2017-03-28T04:56:23.473Z,52
2017-03-28T04:57:23.524Z,60
2017-03-28T04:58:23.579Z,68
2017-03-28T04:59:23.632Z,76
2017-03-28T05:00:23.680Z,88
2017-03-28T05:01:23.735Z,96
2017-03-28T05:02:23.783Z,104
2017-03-28T05:03:23.838Z,116
2017-03-28T05:04:23.896Z,128
2017-03-28T05:05:23.941Z,144
2017-03-28T05:06:23.999Z,156
2017-03-28T05:07:24.050Z,172
2017-03-28T05:08:24.106Z,184
2017-03-28T05:09:24.153Z,200
2017-03-28T05:10:24.207Z,220
2017-03-28T05:11:24.260Z,236
2017-03-28T05:12:24.311Z,252
2017-03-28T05:13:24.367Z,268
2017-03-28T05:14:24.114Z,288
2017-03-28T05:15:24.474Z,308
2017-03-28T05:16:24.520Z,328
2017-03-28T05:17:24.574Z,344
2017-03-28T05:18:24.331Z,368
2017-03-28T05:19:24.079Z,384
2017-03-28T05:20:24.730Z,404
2017-03-28T05:21:24.479Z,424
2017-03-28T05:22:24.529Z,444
2017-03-28T05:23:24.890Z,464
2017-03-28T05:24:24.937Z,484
2017-03-28T05:25:24.387Z,504
2017-03-28T05:26:25.040Z,524
2017-03-28T05:27:25.094Z,544
2017-03-28T05:28:25.152Z,564
2017-03-28T05:29:25.211Z,584
2017-03-28T05:30:25.255Z,600
2017-03-28T05:31:25.303Z,620
2017-03-28T05:32:25.360Z,636
2017-03-28T05:33:25.410Z,652
2017-03-28T05:34:25.465Z,676
2017-03-28T05:35:25.511Z,696
2017-03-28T05:36:25.270Z,712
2017-03-28T05:37:25.619Z,728
2017-03-28T05:38:25.679Z,748
2017-03-28T05:39:25.726Z,764
2017-03-28T05:40:25.777Z,780
2017-03-28T05:41:25.833Z,796
2017-03-28T05:42:25.881Z,812
2017-03-28T05:43:25.950Z,832
2017-03-28T05:44:25.990Z,848
2017-03-28T05:45:26.044Z,868
2017-03-28T05:46:26.091Z,884
2017-03-28T05:47:26.145Z,904
2017-03-28T05:48:26.200Z,924
2017-03-28T05:49:26.255Z,940
2017-03-28T05:50:26.304Z,956
2017-03-28T05:51:26.354Z,972
2017-03-28T05:52:26.411Z,992
2017-03-28T05:53:26.457Z,1004
2017-03-28T05:54:26.515Z,1020
2017-03-28T05:55:26.562Z,1040
2017-03-28T05:56:26.619Z,1056
2017-03-28T05:57:26.668Z,1072
2017-03-28T05:58:26.723Z,1092
2017-03-28T05:59:26.779Z,1108
2017-03-28T06:00:26.528Z,1124
2017-03-28T06:01:26.875Z,1140
2017-03-28T06:02:26.928Z,1152
2017-03-28T06:03:26.982Z,1172
2017-03-28T06:04:27.038Z,1188
2017-03-28T06:05:26.788Z,1204
2017-03-28T06:06:27.138Z,1220
2017-03-28T06:07:27.192Z,1236
2017-03-28T06:08:27.248Z,1256
2017-03-28T06:09:27.300Z,1264
2017-03-28T06:10:27.048Z,1280
2017-03-28T06:11:27.404Z,1288
2017-03-28T06:12:27.454Z,1308
2017-03-28T06:13:27.513Z,1328
2017-03-28T06:14:27.561Z,1344
2017-03-28T06:15:27.613Z,1360
2017-03-28T06:16:27.662Z,1376
2017-03-28T06:17:27.417Z,1392
2017-03-28T06:18:27.772Z,1408
2017-03-28T06:19:27.827Z,1424
2017-03-28T06:20:27.874Z,1440
2017-03-28T06:21:27.927Z,1456
2017-03-28T06:22:27.979Z,1468
2017-03-28T06:23:28.037Z,1488
2017-03-28T06:24:27.786Z,1500
2017-03-28T06:25:27.836Z,1516
2017-03-28T06:26:28.195Z,1532
2017-03-28T06:27:28.238Z,1544
2017-03-28T06:28:28.296Z,1556
2017-03-28T06:29:28.347Z,1568
2017-03-28T06:30:28.098Z,1592
2017-03-28T06:31:28.452Z,1620
2017-03-28T06:32:28.502Z,1652
2017-03-28T06:33:28.558Z,1696
2017-03-28T06:34:28.614Z,1744
2017-03-28T06:35:28.664Z,1776
2017-03-28T06:36:28.720Z,1804
2017-03-28T06:37:28.464Z,1836
2017-03-28T06:38:28.521Z,1876
2017-03-28T06:39:28.870Z,1944
2017-03-28T06:40:28.929Z,2008
2017-03-28T06:41:28.981Z,2092
2017-03-28T06:42:29.048Z,2188
2017-03-28T06:43:29.081Z,2288
2017-03-28T06:44:29.148Z,2400
2017-03-28T06:45:29.198Z,2528
2017-03-28T06:46:29.239Z,2644
2017-03-28T06:47:29.294Z,2712
2017-03-28T06:48:29.347Z,2764
2017-03-28T06:49:29.402Z,2816
2017-03-28T06:50:29.146Z,2864
2017-03-28T06:51:29.197Z,2920
2017-03-28T06:52:29.558Z,2972
2017-03-28T06:53:29.309Z,3040
2017-03-28T06:54:29.356Z,3128
2017-03-28T06:55:29.414Z,3212
2017-03-28T06:56:29.771Z,3292
2017-03-28T06:57:29.839Z,3392
2017-03-28T06:58:29.571Z,3480
2017-03-28T06:59:29.924Z,3572
2017-03-28T07:00:29.715Z,3656
2017-03-28T07:01:30.028Z,3744
2017-03-28T07:02:29.784Z,3848
2017-03-28T07:03:30.137Z,3960
2017-03-28T07:04:30.189Z,4064
2017-03-28T07:05:29.940Z,4176
2017-03-28T07:06:30.302Z,4288
2017-03-28T07:07:30.342Z,4404
2017-03-28T07:08:30.096Z,4512
2017-03-28T07:09:30.153Z,4628
2017-03-28T07:10:30.504Z,4756
2017-03-28T07:11:30.558Z,4884
2017-03-28T07:12:30.310Z,5132
2017-03-28T07:13:30.565Z,6476
2017-03-28T07:14:30.420Z,11944
2017-03-28T07:15:30.775Z,17728
2017-03-28T07:16:30.821Z,19584
2017-03-28T07:17:30.576Z,19904
2017-03-28T07:18:30.628Z,22016
2017-03-28T07:19:30.679Z,23904
2017-03-28T07:20:31.036Z,24640
2017-03-28T07:21:31.092Z,24672
2017-03-28T07:22:30.849Z,25088
2017-03-28T07:23:31.203Z,24896
2017-03-28T07:24:31.252Z,24896
2017-03-28T07:25:31.310Z,26080
2017-03-28T07:26:31.357Z,27328
2017-03-28T07:27:31.421Z,27744
2017-03-28T07:28:31.482Z,26496
2017-03-28T07:29:31.218Z,24640
2017-03-28T07:30:31.576Z,26080
2017-03-28T07:31:31.628Z,27616
2017-03-28T07:32:31.379Z,27616
2017-03-28T07:33:31.438Z,27744
2017-03-28T07:34:31.485Z,28512
2017-03-28T07:35:31.844Z,28640
2017-03-28T07:36:31.910Z,27744
2017-03-28T07:37:31.954Z,29312
2017-03-28T07:38:32.013Z,29632
2017-03-28T07:39:32.062Z,26720
2017-03-28T07:40:32.110Z,24256
2017-03-28T07:41:32.165Z,25248
2017-03-28T07:42:32.228Z,29120
2017-03-28T07:43:32.278Z,31712
2017-03-28T07:44:32.330Z,30912
2017-03-28T07:45:32.389Z,33344
2017-03-28T07:46:32.441Z,34272
2017-03-28T07:47:32.496Z,30592
2017-03-28T07:48:32.554Z,29952
2017-03-28T07:49:32.602Z,31232
2017-03-28T07:50:32.664Z,31232
2017-03-28T07:51:32.717Z,33920
2017-03-28T07:52:32.775Z,34176
2017-03-28T07:53:32.826Z,33600
2017-03-28T07:54:32.885Z,32320
2017-03-28T07:55:32.936Z,31200
2017-03-28T07:56:32.993Z,31840
2017-03-28T07:57:33.050Z,34528
2017-03-28T07:58:33.108Z,34176
2017-03-28T07:59:33.163Z,33568
2017-03-28T08:00:32.923Z,33440
2017-03-28T08:01:32.972Z,33504
2017-03-28T08:02:33.329Z,33248
2017-03-28T08:03:33.387Z,34752
2017-03-28T08:04:33.441Z,37280
2017-03-28T08:05:33.500Z,36896
2017-03-28T08:06:33.553Z,36800
2017-03-28T08:07:33.609Z,35648
2017-03-28T08:08:33.667Z,38112
2017-03-28T08:09:33.722Z,39424
2017-03-28T08:10:33.782Z,37056
2017-03-28T08:11:33.853Z,36640
2017-03-28T08:12:33.909Z,36384
2017-03-28T08:13:33.964Z,37568
2017-03-28T08:14:34.006Z,39840
2017-03-28T08:15:34.067Z,39168
2017-03-28T08:16:34.168Z,38656
2017-03-28T08:17:34.183Z,39392
2017-03-28T08:18:34.240Z,39264
2017-03-28T08:19:34.294Z,39936
2017-03-28T08:20:34.359Z,44064
2017-03-28T08:21:34.407Z,43040
2017-03-28T08:22:34.467Z,41888
2017-03-28T08:23:34.525Z,46304
2017-03-28T08:24:34.582Z,46688
2017-03-28T08:25:34.635Z,47072
2017-03-28T08:26:34.698Z,45408
2017-03-28T08:27:34.753Z,46208
2017-03-28T08:28:34.817Z,44544
2017-03-28T08:29:34.870Z,46560
2017-03-28T08:30:34.927Z,47808
2017-03-28T08:31:34.983Z,47904
2017-03-28T08:32:34.744Z,48480
2017-03-28T08:33:34.801Z,47360
2017-03-28T08:34:35.162Z,48960
2017-03-28T08:35:34.626Z,48608
2017-03-28T08:36:34.669Z,50528
2017-03-28T08:37:35.033Z,49344
2017-03-28T08:38:35.086Z,47744
2017-03-28T08:39:35.448Z,45216
2017-03-28T08:40:35.516Z,46208
2017-03-28T08:41:35.567Z,49216
2017-03-28T08:42:35.623Z,47776
2017-03-28T08:43:35.678Z,47040
2017-03-28T08:44:35.736Z,47648
2017-03-28T08:45:35.798Z,47840
2017-03-28T08:46:35.855Z,50080
2017-03-28T08:47:35.615Z,54144
2017-03-28T08:48:35.971Z,52320
2017-03-28T08:49:36.031Z,44032
2017-03-28T08:50:36.091Z,41056
2017-03-28T08:51:36.146Z,38944
2017-03-28T08:52:36.208Z,42112
2017-03-28T08:53:36.261Z,50272
2017-03-28T08:54:36.326Z,52000
2017-03-28T08:55:36.079Z,53184
2017-03-28T08:56:36.440Z,39072
2017-03-28T08:57:36.500Z,29792
2017-03-28T08:58:36.551Z,31776
2017-03-28T08:59:36.612Z,37344
2017-03-28T09:00:36.671Z,47776
2017-03-28T09:01:36.727Z,54208
2017-03-28T09:02:36.783Z,53280
2017-03-28T09:03:36.853Z,53440
2017-03-28T09:04:36.598Z,53536
2017-03-28T09:05:36.959Z,54752
2017-03-28T09:06:37.016Z,53632
2017-03-28T09:07:37.079Z,51424
2017-03-28T09:08:37.137Z,50656
2017-03-28T09:09:37.196Z,52352
2017-03-28T09:10:37.252Z,47584
2017-03-28T09:11:37.008Z,46272
2017-03-28T09:12:37.369Z,52192
2017-03-28T09:13:37.429Z,52160
2017-03-28T09:14:37.486Z,53152
2017-03-28T09:15:37.541Z,50432
2017-03-28T09:16:37.601Z,49504
2017-03-28T09:17:37.661Z,52736
2017-03-28T09:18:37.425Z,53184
2017-03-28T09:19:37.782Z,53152
2017-03-28T09:20:37.530Z,51392
2017-03-28T09:21:37.899Z,51136
2017-03-28T09:22:37.952Z,48384
2017-03-28T09:23:38.019Z,48128
2017-03-28T09:24:37.779Z,51584
2017-03-28T09:25:37.832Z,52224
2017-03-28T09:26:37.890Z,52192
2017-03-28T09:27:38.253Z,46432
2017-03-28T09:28:38.013Z,46208
2017-03-28T09:29:38.373Z,48768
2017-03-28T09:30:38.429Z,47840
2017-03-28T09:31:38.494Z,61696
2017-03-28T09:32:38.553Z,96512
2017-03-28T09:33:38.607Z,109280
2017-03-28T09:34:38.671Z,93664
2017-03-28T09:35:38.126Z,88960
2017-03-28T09:36:38.788Z,99456
2017-03-28T09:37:38.845Z,85504
2017-03-28T09:38:38.612Z,69728
2017-03-28T09:39:38.964Z,68992
2017-03-28T09:40:39.026Z,62816
2017-03-28T09:41:39.096Z,54336
2017-03-28T09:42:39.149Z,46688
2017-03-28T09:43:38.602Z,87936
2017-03-28T09:44:39.270Z,84960
2017-03-28T09:45:39.324Z,88384
2017-03-28T09:46:39.386Z,122976
2017-03-28T09:47:39.449Z,79008
2017-03-28T09:48:39.507Z,64416
2017-03-28T09:49:39.566Z,62976
2017-03-28T09:50:39.629Z,55712
2017-03-28T09:51:39.685Z,55712
2017-03-28T09:52:39.754Z,51104
2017-03-28T09:53:39.813Z,65760
2017-03-28T09:54:39.868Z,59328
2017-03-28T09:55:39.926Z,43264
2017-03-28T09:56:39.991Z,44256
2017-03-28T09:57:40.054Z,41536
2017-03-28T09:58:40.112Z,39552
2017-03-28T09:59:40.173Z,39328
2017-03-28T10:00:40.231Z,36448
2017-03-28T10:01:40.292Z,34336
2017-03-28T10:02:40.350Z,35648
2017-03-28T10:03:40.413Z,36160
2017-03-28T10:04:40.472Z,37792
2017-03-28T10:05:40.530Z,46848
2017-03-28T10:06:40.587Z,53088
2017-03-28T10:07:40.354Z,55776
2017-03-28T10:08:40.713Z,60064
2017-03-28T10:09:40.470Z,84832
2017-03-28T10:10:40.834Z,91456
2017-03-28T10:11:40.894Z,78080
2017-03-28T10:12:40.951Z,99392
2017-03-28T10:13:41.016Z,95552
2017-03-28T10:14:41.073Z,58080
2017-03-28T10:15:41.138Z,52000
2017-03-28T10:16:41.196Z,68352
2017-03-28T10:17:40.961Z,61856
2017-03-28T10:18:41.319Z,52960
2017-03-28T10:19:41.071Z,76256
2017-03-28T10:20:41.439Z,77920
2017-03-28T10:21:41.497Z,70144
2017-03-28T10:22:41.560Z,70720
2017-03-28T10:23:41.618Z,63200
2017-03-28T10:24:41.675Z,56864
2017-03-28T10:25:41.438Z,67872
2017-03-28T10:26:41.799Z,75680
2017-03-28T10:27:41.867Z,54240
2017-03-28T10:28:41.917Z,65152
2017-03-28T10:29:41.981Z,82560
2017-03-28T10:30:42.042Z,60224
2017-03-28T10:31:41.806Z,61984
2017-03-28T10:32:42.165Z,83232
2017-03-28T10:33:42.220Z,79040
2017-03-28T10:34:42.283Z,79104
2017-03-28T10:35:42.347Z,72576
2017-03-28T10:36:42.403Z,60128
2017-03-28T10:37:42.462Z,73088
2017-03-28T10:38:42.528Z,89888
2017-03-28T10:39:42.281Z,60928
2017-03-28T10:40:42.647Z,53536
2017-03-28T10:41:42.704Z,85088
2017-03-28T10:42:42.771Z,66080
2017-03-28T10:43:42.827Z,45024
2017-03-28T10:44:42.892Z,69024
2017-03-28T10:45:42.646Z,77792
2017-03-28T10:46:43.008Z,65184
2017-03-28T10:47:43.077Z,53408
2017-03-28T10:48:42.825Z,41344
2017-03-28T10:49:42.885Z,57120
2017-03-28T10:50:42.646Z,63552
2017-03-28T10:51:43.309Z,40960
2017-03-28T10:52:43.371Z,39808
2017-03-28T10:53:43.429Z,52192
2017-03-28T10:54:43.490Z,64224
2017-03-28T10:55:43.554Z,70272
2017-03-28T10:56:43.613Z,80896
2017-03-28T10:57:43.676Z,89888
2017-03-28T10:58:43.736Z,66592
2017-03-28T10:59:43.793Z,43744
2017-03-28T11:00:43.558Z,39744
2017-03-28T11:01:43.914Z,48832
2017-03-28T11:02:43.978Z,63776
2017-03-28T11:03:44.039Z,48192
2017-03-28T11:04:44.098Z,52224
2017-03-28T11:05:43.859Z,92096
2017-03-28T11:06:44.223Z,84832
2017-03-28T11:07:43.978Z,63488
2017-03-28T11:08:44.344Z,69536
2017-03-28T11:09:44.422Z,62304
2017-03-28T11:10:44.457Z,57728
2017-03-28T11:11:44.515Z,81408
2017-03-28T11:12:44.578Z,81696
2017-03-28T11:13:44.645Z,45728
2017-03-28T11:14:44.701Z,49632
2017-03-28T11:15:44.763Z,80128
2017-03-28T11:16:44.831Z,82272
2017-03-28T11:17:44.883Z,66912
2017-03-28T11:18:44.940Z,61248
2017-03-28T11:19:45.001Z,65696
2017-03-28T11:20:45.061Z,62976
2017-03-28T11:21:45.121Z,58688
2017-03-28T11:22:45.186Z,68448
2017-03-28T11:23:45.244Z,70464
2017-03-28T11:24:45.306Z,62112
2017-03-28T11:25:45.362Z,64480
2017-03-28T11:26:45.425Z,72352
2017-03-28T11:27:45.490Z,68000
2017-03-28T11:28:45.549Z,63616
2017-03-28T11:29:45.603Z,58656
2017-03-28T11:30:45.668Z,57888
2017-03-28T11:31:45.728Z,61312
2017-03-28T11:32:45.788Z,62944
2017-03-28T11:33:45.849Z,60576
2017-03-28T11:34:45.913Z,61952
2017-03-28T11:35:45.963Z,62688
2017-03-28T11:36:46.025Z,59232
2017-03-28T11:37:46.089Z,60768
2017-03-28T11:38:46.146Z,62688
2017-03-28T11:39:46.214Z,62112
2017-03-28T11:40:46.267Z,63168
2017-03-28T11:41:46.327Z,62560
2017-03-28T11:42:46.388Z,60768
2017-03-28T11:43:46.450Z,59328
2017-03-28T11:44:46.538Z,59936
2017-03-28T11:45:46.566Z,58176
2017-03-28T11:46:46.634Z,58336
2017-03-28T11:47:46.689Z,59712
2017-03-28T11:48:46.774Z,59520
2017-03-28T11:49:46.809Z,58656
2017-03-28T11:50:46.871Z,61632
2017-03-28T11:51:46.924Z,63936
2017-03-28T11:52:46.988Z,61536
2017-03-28T11:53:47.048Z,57760
2017-03-28T11:54:47.142Z,58048
2017-03-28T11:55:47.167Z,56992
2017-03-28T11:56:47.229Z,58112
2017-03-28T11:57:47.294Z,56416
2017-03-28T11:58:47.349Z,40800
2017-03-28T11:59:47.407Z,13364
2017-03-28T12:00:47.471Z,7196
2017-03-28T12:01:47.528Z,6300
2017-03-28T12:02:47.583Z,5964
2017-03-28T12:03:47.650Z,5748
2017-03-28T12:04:47.705Z,5576
2017-03-28T12:05:47.771Z,5440
2017-03-28T12:06:47.520Z,5316
2017-03-28T12:07:47.888Z,5184
2017-03-28T12:08:47.942Z,5084
2017-03-28T12:09:48.010Z,4968
2017-03-28T12:10:48.063Z,4864
2017-03-28T12:11:48.130Z,4768
2017-03-28T12:12:48.182Z,4676
2017-03-28T12:13:47.943Z,4592
2017-03-28T12:14:48.304Z,4536
2017-03-28T12:15:48.362Z,4464
2017-03-28T12:16:48.429Z,4384
2017-03-28T12:17:48.485Z,4296
2017-03-28T12:18:48.540Z,4188
2017-03-28T12:19:48.602Z,4072
2017-03-28T12:20:48.665Z,3960
2017-03-28T12:21:48.730Z,3876
2017-03-28T12:22:48.780Z,3804
2017-03-28T12:23:48.541Z,3748
2017-03-28T12:24:48.903Z,3716
2017-03-28T12:25:48.962Z,3692
2017-03-28T12:26:49.020Z,3660
2017-03-28T12:27:49.087Z,3628
2017-03-28T12:28:49.139Z,3604
2017-03-28T12:29:48.897Z,3572
2017-03-28T12:30:49.269Z,3552
2017-03-28T12:31:49.318Z,3532
2017-03-28T12:32:49.380Z,3508
2017-03-28T12:33:49.442Z,3488
2017-03-28T12:34:49.499Z,3468
2017-03-28T12:35:49.562Z,3452
2017-03-28T12:36:49.631Z,3428
2017-03-28T12:37:49.673Z,3408
2017-03-28T12:38:49.736Z,3384
2017-03-28T12:39:49.795Z,3372
2017-03-28T12:40:49.865Z,3368
2017-03-28T12:41:49.916Z,3360
2017-03-28T12:42:49.980Z,3376
2017-03-28T12:43:50.036Z,3352
2017-03-28T12:44:50.094Z,3332
2017-03-28T12:45:50.150Z,3316
2017-03-28T12:46:50.215Z,3292
2017-03-28T12:47:50.272Z,3268
2017-03-28T12:48:50.325Z,3248
2017-03-28T12:49:50.389Z,3232
2017-03-28T12:50:50.447Z,3216
2017-03-28T12:51:50.509Z,3200
2017-03-28T12:52:50.572Z,3204
2017-03-28T12:53:50.627Z,3228
2017-03-28T12:54:50.680Z,3204
2017-03-28T12:55:50.740Z,3232
2017-03-28T12:56:50.800Z,3236
2017-03-28T12:57:50.858Z,3188
2017-03-28T12:58:50.915Z,3188
2017-03-28T12:59:50.976Z,3152
2017-03-28T13:00:50.732Z,3132
2017-03-28T13:01:51.118Z,3124
2017-03-28T13:02:51.153Z,3076
2017-03-28T13:03:51.211Z,3036
2017-03-28T13:04:51.268Z,3028
2017-03-28T13:05:51.326Z,3016
2017-03-28T13:06:51.384Z,3012
2017-03-28T13:07:51.441Z,3012
2017-03-28T13:08:51.495Z,3004
2017-03-28T13:09:51.561Z,2992
2017-03-28T13:10:51.618Z,3004
2017-03-28T13:11:51.370Z,2988
2017-03-28T13:12:51.765Z,2972
2017-03-28T13:13:51.791Z,2956
2017-03-28T13:14:51.856Z,2944
2017-03-28T13:15:51.905Z,2976
2017-03-28T13:16:51.665Z,3068
2017-03-28T13:17:52.023Z,3068
2017-03-28T13:18:52.081Z,2948
2017-03-28T13:19:52.137Z,2912
2017-03-28T13:20:52.201Z,2872
2017-03-28T13:21:52.263Z,2872
2017-03-28T13:22:52.318Z,2884
2017-03-28T13:23:52.373Z,2848
2017-03-28T13:24:52.431Z,2856
2017-03-28T13:25:52.487Z,2864
2017-03-28T13:26:52.547Z,2864
2017-03-28T13:27:52.605Z,2904
2017-03-28T13:28:52.664Z,2988
2017-03-28T13:29:52.717Z,2896
2017-03-28T13:30:52.790Z,2828
2017-03-28T13:31:52.834Z,2808
2017-03-28T13:32:52.899Z,2820
2017-03-28T13:33:52.955Z,2860
2017-03-28T13:34:53.013Z,2820
2017-03-28T13:35:53.071Z,2796
2017-03-28T13:36:53.133Z,2828
2017-03-28T13:37:53.184Z,2912
2017-03-28T13:38:53.246Z,2876
2017-03-28T13:39:53.300Z,2872
2017-03-28T13:40:53.363Z,2848